Home > Products > Valid Products > MTR

000
SAUS46 KMFR 270129
MTRSXT
SPECI KSXT 270128Z AUTO 00000KT 10SM FEW020 OVC041 12/06 A3025 RMK
AO2 T01170061





000
SAUS46 KMFR 270057
MTRSXT
METAR KSXT 270056Z AUTO 00000KT 10SM BKN023 OVC028 11/06 A3025 RMK
AO2 SLP244 T01110061





000
SAUS46 KMFR 270057
MTRSXT
METAR KSXT 270056Z AUTO 00000KT 10SM BKN023 OVC028 11/06 A3025 RMK
AO2 SLP244 T01110061





000
SAUS46 KMFR 262357
MTRSXT
METAR KSXT 262356Z AUTO 00000KT 10SM OVC024 11/06 A3025 RMK AO2
SLP246 60000 T01060056 10122 20056 52003





000
SAUS46 KMFR 262357
MTRSXT
METAR KSXT 262356Z AUTO 00000KT 10SM OVC024 11/06 A3025 RMK AO2
SLP246 60000 T01060056 10122 20056 52003





000
SAUS46 KMFR 262343
MTRSXT
SPECI KSXT 262341Z AUTO VRB03KT 10SM BKN024 OVC030 11/06 A3024 RMK
AO2 T01060056





000
SAUS46 KMFR 262343
MTRSXT
SPECI KSXT 262341Z AUTO VRB03KT 10SM BKN024 OVC030 11/06 A3024 RMK
AO2 T01060056





000
SAUS46 KMFR 262257
MTRSXT
METAR KSXT 262256Z AUTO 10SM FEW023 OVC035 11/05 A3024 RMK AO2
RAB03E13 SLP241 P0000 T01110050





000
SAUS46 KMFR 262257
MTRSXT
METAR KSXT 262256Z AUTO 10SM FEW023 OVC035 11/05 A3024 RMK AO2
RAB03E13 SLP241 P0000 T01110050





000
SAUS46 KMFR 262221
MTRSXT
SPECI KSXT 262220Z AUTO 00000KT 10SM SCT019 OVC035 11/04 A3025 RMK
AO2 RAB03E13 P0000 T01060044





000
SAUS46 KMFR 262157
MTRSXT
METAR KSXT 262156Z AUTO 00000KT 10SM OVC020 10/04 A3025 RMK AO2
SLP244 T01000039





000
SAUS46 KMFR 262057
MTRSXT
METAR KSXT 262056Z AUTO 00000KT 10SM OVC022 09/03 A3024 RMK AO2
SLP244 60000 T00890028 53006





000
SAUS46 KMFR 262057
MTRSXT
METAR KSXT 262056Z AUTO 00000KT 10SM OVC022 09/03 A3024 RMK AO2
SLP244 60000 T00890028 53006





000
SAUS46 KMFR 262009
MTRSXT
SPECI KSXT 262008Z AUTO VRB04KT 10SM OVC027 08/02 A3023 RMK AO2
T00830017





000
SAUS46 KMFR 261957
MTRSXT
METAR KSXT 261956Z AUTO VRB05KT 10SM OVC030 10/03 A3022 RMK AO2
RAB12E24 SLP236 P0000 T01000028





000
SAUS46 KMFR 261857
MTRSXT
METAR KSXT 261856Z AUTO VRB03KT 10SM SCT016 BKN033 OVC039 08/01
A3022 RMK AO2 SLP240 T00780006





000
SAUS46 KMFR 261857
MTRSXT
METAR KSXT 261856Z AUTO VRB03KT 10SM SCT016 BKN033 OVC039 08/01
A3022 RMK AO2 SLP240 T00780006





000
SAUS46 KMFR 261855
MTRSXT
SPECI KSXT 261854Z AUTO VRB03KT 10SM SCT016 BKN030 OVC038 07/00
A3022 RMK AO2





000
SAUS46 KMFR 261855
MTRSXT
SPECI KSXT 261854Z AUTO VRB03KT 10SM SCT016 BKN030 OVC038 07/00
A3022 RMK AO2





000
SAUS46 KMFR 261845
MTRSXT
SPECI KSXT 261844Z AUTO 00000KT 10SM SCT016 BKN021 OVC030 07/M01
A3022 RMK AO2 T00671006





000
SAUS46 KMFR 261845
MTRSXT
SPECI KSXT 261844Z AUTO 00000KT 10SM SCT016 BKN021 OVC030 07/M01
A3022 RMK AO2 T00671006





000
SAUS46 KMFR 261757
MTRSXT
METAR KSXT 261756Z AUTO VRB04KT 10SM FEW017 BKN034 OVC044 06/01
A3020 RMK AO2 SLP237 T00610006 10072 20011 53018





000
SAUS46 KMFR 261757
MTRSXT
METAR KSXT 261756Z AUTO VRB04KT 10SM FEW017 BKN034 OVC044 06/01
A3020 RMK AO2 SLP237 T00610006 10072 20011 53018





000
SAUS46 KMFR 261747
MTRSXT
SPECI KSXT 261746Z AUTO VRB03KT 10SM SCT019 BKN036 OVC044 06/02
A3019 RMK AO2 T00610022





000
SAUS46 KMFR 261657
MTRSXT
METAR KSXT 261656Z AUTO 15005KT 10SM BKN021 OVC036 04/01 A3018 RMK
AO2 SLP233 T00440011





000
SAUS46 KMFR 261657
MTRSXT
METAR KSXT 261656Z AUTO 15005KT 10SM BKN021 OVC036 04/01 A3018 RMK
AO2 SLP233 T00440011





000
SAUS46 KMFR 261650
MTRSXT
SPECI KSXT 261649Z AUTO 14005KT 10SM BKN021 OVC038 04/01 A3018 RMK
AO2 T00440011





000
SAUS46 KMFR 261607
MTRSXT
SPECI KSXT 261606Z AUTO 14007KT 10SM FEW021 SCT026 OVC047 04/01
A3016 RMK AO2 T00390011





000
SAUS46 KMFR 261557
MTRSXT
METAR KSXT 261556Z AUTO 13008KT 10SM SCT022 BKN026 OVC047 04/01
A3016 RMK AO2 SLP223 T00390011





000
SAUS46 KMFR 261557
MTRSXT
METAR KSXT 261556Z AUTO 13008KT 10SM SCT022 BKN026 OVC047 04/01
A3016 RMK AO2 SLP223 T00390011





000
SAUS46 KMFR 261528
MTRSXT
SPECI KSXT 261527Z AUTO 15006KT 10SM BKN023 BKN030 OVC038 04/01
A3016 RMK AO2 T00390006





000
SAUS46 KMFR 261512
MTRSXT
SPECI KSXT 261511Z AUTO 15007KT 10SM SCT021 OVC037 03/00 A3015 RMK
AO2 T00330000





000
SAUS46 KMFR 261457
MTRSXT
METAR KSXT 261456Z AUTO 16006KT 10SM BKN022 OVC033 03/00 A3014 RMK
AO2 SLP216 T00330000 53014





000
SAUS46 KMFR 261357
MTRSXT
METAR KSXT 261356Z AUTO 16012KT 10SM BKN028 OVC036 02/00 A3010 RMK
AO2 SLP201 T00220000





000
SAUS46 KMFR 261337
MTRSXT
SPECI KSXT 261336Z AUTO 17010KT 10SM BKN029 BKN034 OVC049 02/00
A3010 RMK AO2 T00220000





000
SAUS46 KMFR 261320
MTRSXT
SPECI KSXT 261319Z AUTO 17011KT 10SM SCT027 OVC050 02/00 A3009 RMK
AO2 T00170000





000
SAUS46 KMFR 261257
MTRSXT
METAR KSXT 261256Z AUTO 18010KT 10SM BKN027 OVC050 02/01 A3010 RMK
AO2 SLP197 T00170006





000
SAUS46 KMFR 261257
MTRSXT
METAR KSXT 261256Z AUTO 18010KT 10SM BKN027 OVC050 02/01 A3010 RMK
AO2 SLP197 T00170006





000
SAUS46 KMFR 261252
MTRSXT
SPECI KSXT 261251Z AUTO 19010KT 10SM BKN027 OVC050 02/01 A3010 RMK
AO2





000
SAUS46 KMFR 261252
MTRSXT
SPECI KSXT 261251Z AUTO 19010KT 10SM BKN027 OVC050 02/01 A3010 RMK
AO2





000
SAUS46 KMFR 261157
MTRSXT
METAR KSXT 261156Z AUTO 17008KT 10SM SCT028 SCT045 OVC060 02/01
A3008 RMK AO2 SLP188 70001 T00170006 10022 20011 51000





000
SAUS46 KMFR 261157
MTRSXT
METAR KSXT 261156Z AUTO 17008KT 10SM SCT028 SCT045 OVC060 02/01
A3008 RMK AO2 SLP188 70001 T00170006 10022 20011 51000





000
SAUS46 KMFR 261057
MTRSXT
METAR KSXT 261056Z AUTO 17006KT 10SM OVC060 02/01 A3008 RMK AO2
SLP188 T00170006





000
SAUS46 KMFR 261057
MTRSXT
METAR KSXT 261056Z AUTO 17006KT 10SM OVC060 02/01 A3008 RMK AO2
SLP188 T00170006





000
SAUS46 KMFR 260957
MTRSXT
METAR KSXT 260956Z AUTO 18004KT 10SM FEW048 BKN070 02/01 A3008 RMK
AO2 SLP192 T00220011





000
SAUS46 KMFR 260857
MTRSXT
METAR KSXT 260856Z AUTO 00000KT 10SM SCT012 02/01 A3008 RMK AO2
SLP191 T00220006 51005





000
SAUS46 KMFR 260857
MTRSXT
METAR KSXT 260856Z AUTO 00000KT 10SM SCT012 02/01 A3008 RMK AO2
SLP191 T00220006 51005





000
SAUS46 KMFR 260855
MTRSXT
SPECI KSXT 260854Z AUTO 00000KT 10SM SCT014 02/01 A3008 RMK AO2





000
SAUS46 KMFR 260840
MTRSXT
SPECI KSXT 260839Z AUTO 00000KT 10SM BKN014 02/01 A3008 RMK AO2
T00170006





000
SAUS46 KMFR 260824
MTRSXT
SPECI KSXT 260822Z AUTO 29003KT 10SM BKN015 02/01 A3008 RMK AO2
T00170011





000
SAUS46 KMFR 260757
MTRSXT
METAR KSXT 260756Z AUTO VRB04KT 10SM FEW009 FEW017 02/01 A3008 RMK
AO2 SLP191 T00170011 401000006





000
SAUS46 KMFR 260657
MTRSXT
METAR KSXT 260656Z AUTO 34005KT 10SM FEW015 FEW070 02/01 A3006 RMK
AO2 SLP191 T00170011





000
SAUS46 KMFR 260657
MTRSXT
METAR KSXT 260656Z AUTO 34005KT 10SM FEW015 FEW070 02/01 A3006 RMK
AO2 SLP191 T00170011





000
SAUS46 KMFR 260557
MTRSXT
METAR KSXT 260556Z AUTO 34006KT 10SM CLR 02/01 A3005 RMK AO2 SLP191
T00170011 10089 20017 51011





000
SAUS46 KMFR 260557
MTRSXT
METAR KSXT 260556Z AUTO 34006KT 10SM CLR 02/01 A3005 RMK AO2 SLP191
T00170011 10089 20017 51011





000
SAUS46 KMFR 260526
MTRSXT
SPECI KSXT 260525Z AUTO 34007KT 10SM SCT022 02/01 A3005 RMK AO2
T00220011





000
SAUS46 KMFR 260526
MTRSXT
SPECI KSXT 260525Z AUTO 34007KT 10SM SCT022 02/01 A3005 RMK AO2
T00220011





000
SAUS46 KMFR 260516
MTRSXT
SPECI KSXT 260515Z AUTO 33006KT 10SM BKN022 BKN029 BKN080 02/02
A3004 RMK AO2 T00220017





000
SAUS46 KMFR 260516
MTRSXT
SPECI KSXT 260515Z AUTO 33006KT 10SM BKN022 BKN029 BKN080 02/02
A3004 RMK AO2 T00220017





000
SAUS46 KMFR 260457
MTRSXT
METAR KSXT 260456Z AUTO 34006KT 10SM FEW030 BKN085 02/02 A3004 RMK
AO2 SLP186 T00220017





000
SAUS46 KMFR 260357
MTRSXT
METAR KSXT 260356Z AUTO 34004KT 10SM FEW016 FEW095 03/02 A3003 RMK
AO2 SLP183 T00280017





000
SAUS46 KMFR 260348
MTRSXT
SPECI KSXT 260347Z AUTO 34004KT 10SM FEW016 SCT027 03/02 A3003 RMK
AO2 T00280017





000
SAUS46 KMFR 260311
MTRSXT
SPECI KSXT 260310Z AUTO 34005KT 10SM SCT022 BKN027 04/02 A3002 RMK
AO2 T00390022





000
SAUS46 KMFR 260311
MTRSXT
SPECI KSXT 260310Z AUTO 34005KT 10SM SCT022 BKN027 04/02 A3002 RMK
AO2 T00390022





000
SAUS46 KMFR 260257
MTRSXT
METAR KSXT 260256Z AUTO VRB04KT 10SM FEW020 SCT029 04/02 A3001 RMK
AO2 SLP177 T00390022 53010





000
SAUS46 KMFR 260257
MTRSXT
METAR KSXT 260256Z AUTO VRB04KT 10SM FEW020 SCT029 04/02 A3001 RMK
AO2 SLP177 T00390022 53010





000
SAUS46 KMFR 260157
MTRSXT
METAR KSXT 260156Z AUTO 00000KT 10SM CLR 06/03 A3000 RMK AO2 SLP167
T00610028





000
SAUS46 KMFR 260157
MTRSXT
METAR KSXT 260156Z AUTO 00000KT 10SM CLR 06/03 A3000 RMK AO2 SLP167
T00610028





000
SAUS46 KMFR 260057
MTRSXT
METAR KSXT 260056Z AUTO 00000KT 10SM SCT029 08/03 A2999 RMK AO2
SLP162 T00780028





000
SAUS46 KMFR 252358
MTRSXT
METAR KSXT 252356Z AUTO VRB03KT 10SM SCT026 09/03 A2998 RMK AO2
RAE00 SLP156 P0000 60000 T00890033 10100 20033 53002





000
SAUS46 KMFR 252358
MTRSXT
METAR KSXT 252356Z AUTO VRB03KT 10SM SCT026 09/03 A2998 RMK AO2
RAE00 SLP156 P0000 60000 T00890033 10100 20033 53002





000
SAUS46 KMFR 252319
MTRSXT
SPECI KSXT 252318Z AUTO VRB03KT 10SM BKN024 BKN029 09/04 A2997 RMK
AO2 RAE00 P0000 T00940039





000
SAUS46 KMFR 252319
MTRSXT
SPECI KSXT 252318Z AUTO VRB03KT 10SM BKN024 BKN029 09/04 A2997 RMK
AO2 RAE00 P0000 T00940039





000
SAUS46 KMFR 252257
MTRSXT
METAR KSXT 252256Z AUTO VRB03KT 10SM -RA SCT026 SCT038 BKN045 09/04
A2997 RMK AO2 SLP149 P0000 T00940039





000
SAUS46 KMFR 252213
MTRSXT
SPECI KSXT 252212Z AUTO VRB03KT 10SM -RA SCT030 BKN039 08/03 A2997
RMK AO2 P0000 T00830033





000
SAUS46 KMFR 252157
MTRSXT
METAR KSXT 252156Z AUTO 00000KT 9SM -RA FEW021 BKN029 OVC043 07/03
A2997 RMK AO2 RAE35B55 SLP155 P0000 T00720033





000
SAUS46 KMFR 252057
MTRSXT
METAR KSXT 252056Z AUTO 00000KT 10SM -RA FEW025 SCT040 BKN047 07/02
A2996 RMK AO2 SLP153 P0000 60000 T00720022 51003





000
SAUS46 KMFR 251957
MTRSXT
METAR KSXT 251956Z AUTO 00000KT 10SM -RA FEW021 07/02 A2997 RMK AO2
SLP153 P0000 T00670017





000
SAUS46 KMFR 251924
MTRSXT
SPECI KSXT 251923Z AUTO VRB04KT 10SM -RA FEW016 BKN034 OVC043 07/03
A2997 RMK AO2 P0000 T00670028





000
SAUS46 KMFR 251857
MTRSXT
METAR KSXT 251856Z AUTO 00000KT 10SM -RA SCT009 BKN019 OVC036 04/03
A2997 RMK AO2 RAB00E10B46 SLP158 P0000 T00440028





000
SAUS46 KMFR 251857
MTRSXT
METAR KSXT 251856Z AUTO 00000KT 10SM -RA SCT009 BKN019 OVC036 04/03
A2997 RMK AO2 RAB00E10B46 SLP158 P0000 T00440028





000
SAUS46 KMFR 251849
MTRSXT
SPECI KSXT 251848Z AUTO VRB04KT 10SM -RA SCT009 BKN016 OVC036 04/03
A2997 RMK AO2 RAB00E10B46 P0000 T00440028





000
SAUS46 KMFR 251849
MTRSXT
SPECI KSXT 251848Z AUTO VRB04KT 10SM -RA SCT009 BKN016 OVC036 04/03
A2997 RMK AO2 RAB00E10B46 P0000 T00440028





000
SAUS46 KMFR 251837
MTRSXT
SPECI KSXT 251836Z AUTO 00000KT 10SM SCT009 BKN014 BKN027 06/03
A2996 RMK AO2 RAB00E10 P0000 T00560033





000
SAUS46 KMFR 251757
MTRSXT
METAR KSXT 251756Z AUTO 22003KT 10SM FEW009 BKN021 OVC026 03/02
A2995 RMK AO2 RAE56 SLP156 P0001 60001 T00280017 10039 20011 53009





000
SAUS46 KMFR 251657
MTRSXT
METAR KSXT 251656Z AUTO VRB03KT 9SM -RA SCT007 OVC018 03/02 A2994
RMK AO2 RAB33 SLP152 P0000 T00280017





000
SAUS46 KMFR 251630
MTRSXT
SPECI KSXT 251629Z AUTO 00000KT 10SM BKN016 BKN022 03/02 A2994 RMK
AO2 T00330017





000
SAUS46 KMFR 251620
MTRSXT
SPECI KSXT 251619Z AUTO 00000KT 10SM SCT021 02/01 A2994 RMK AO2
T00220006





000
SAUS46 KMFR 251557
MTRSXT
METAR KSXT 251556Z AUTO 00000KT 10SM BKN021 02/01 A2993 RMK AO2
RAE1459B40E50 SLP150 P0000 T00220006





000
SAUS46 KMFR 251545
MTRMHS
SPECI KMHS 251541Z AUTO VRB06KT 10SM BKN024 06/01 A2991 RMK AO2
T00610011





000
SAUS46 KMFR 251542
MTRSXT
SPECI KSXT 251541Z AUTO 00000KT 10SM -RA FEW003 BKN020 02/01 A2993
RMK AO2 RAE1459B40 P0000 T00170011





000
SAUS46 KMFR 251526
MTRSXT
SPECI KSXT 251525Z AUTO 00000KT 10SM SCT015 01/01 A2993 RMK AO2
RAE1459 P0000 T00110006





000
SAUS46 KMFR 251521
MTRSXT
SPECI KSXT 251520Z AUTO 00000KT 10SM FEW004 BKN014 01/01 A2993 RMK
AO2 RAE1459 P0000 T00110006





000
SAUS46 KMFR 251521
MTRSXT
SPECI KSXT 251520Z AUTO 00000KT 10SM FEW004 BKN014 01/01 A2993 RMK
AO2 RAE1459 P0000 T00110006





000
SAUS46 KMFR 251457
MTRSXT
METAR KSXT 251456Z AUTO 00000KT 10SM -RA OVC014 01/01 A2992 RMK AO2
RAB45 SLP147 P0000 60000 T00110011 53007





000
SAUS46 KMFR 251444
MTRSXT
SPECI KSXT 251443Z AUTO 00000KT 10SM FEW009 OVC014 01/01 A2992 RMK
AO2 T00110011





000
SAUS46 KMFR 251444
MTRSXT
SPECI KSXT 251443Z AUTO 00000KT 10SM FEW009 OVC014 01/01 A2992 RMK
AO2 T00110011





000
SAUS46 KMFR 251434
MTRSXT
SPECI KSXT 251432Z AUTO 00000KT 8SM BKN009 OVC016 01/01 A2992 RMK
AO2 T00110011





000
SAUS46 KMFR 251434
MTRSXT
SPECI KSXT 251432Z AUTO 00000KT 8SM BKN009 OVC016 01/01 A2992 RMK
AO2 T00110011





000
SAUS46 KMFR 251426
MTRSXT
SPECI KSXT 251425Z AUTO 00000KT 2 1/2SM BR BKN008 OVC017 01/01 A2992
RMK AO2 VIS 3/4V5 T00110011





000
SAUS46 KMFR 251426
MTRSXT
SPECI KSXT 251425Z AUTO 00000KT 2 1/2SM BR BKN008 OVC017 01/01 A2992
RMK AO2 VIS 3/4V5 T00110011





000
SAUS46 KMFR 251424
MTRSXT
SPECI KSXT 251423Z AUTO 00000KT 1 1/4SM BR BKN008 OVC017 01/01 A2992
RMK AO2 VIS 1/2V5 T00110011





000
SAUS46 KMFR 251357
MTRSXT
METAR KSXT 251356Z AUTO 00000KT 1/4SM FG VV008 01/01 A2991 RMK AO2
SLP141 T00110011





000
SAUS46 KMFR 251357
MTRSXT
METAR KSXT 251356Z AUTO 00000KT 1/4SM FG VV008 01/01 A2991 RMK AO2
SLP141 T00110011





000
SAUS46 KMFR 251304
MTRSXT
SPECI KSXT 251303Z AUTO VRB03KT 1/4SM FG VV005 01/01 A2990 RMK AO2
T00110011





000
SAUS46 KMFR 251304
MTRSXT
SPECI KSXT 251303Z AUTO VRB03KT 1/4SM FG VV005 01/01 A2990 RMK AO2
T00110011





000
SAUS46 KMFR 251300
MTRMHS
METAR KMHS 251256Z AUTO VRB04KT 10SM BKN021 BKN030 BKN034 04/01
A2987 RMK AO2 SLP132 T00390006





000
SAUS46 KMFR 251257
MTRSXT
METAR KSXT 251256Z AUTO 00000KT 1/4SM FG VV004 01/01 A2990 RMK AO2
RAB07E34 SLP137 P0000 T00110011





000
SAUS46 KMFR 251255
MTRSXT
SPECI KSXT 251254Z AUTO 00000KT 1/4SM FG VV005 01/01 A2990 RMK AO2
RAB07E34 P0000





000
SAUS46 KMFR 251228
MTRSXT
SPECI KSXT 251227Z AUTO 33003KT 1/4SM -RA FG VV003 01/01 A2990 RMK
AO2 RAB07 P0000 T00110011





000
SAUS46 KMFR 251228
MTRSXT
SPECI KSXT 251227Z AUTO 33003KT 1/4SM -RA FG VV003 01/01 A2990 RMK
AO2 RAB07 P0000 T00110011





000
SAUS46 KMFR 251212
MTRSXT
SPECI KSXT 251211Z AUTO 32005KT 1/2SM -RA FG BKN004 OVC022 01/01
A2989 RMK AO2 RAB07 P0000 T00110006





000
SAUS46 KMFR 251157
MTRSXT
METAR KSXT 251156Z AUTO 33003KT 1/4SM FG FEW002 OVC021 01/01 A2989
RMK AO2 SLP137 60001 70015 T00060006 10022 20006 53003





000
SAUS46 KMFR 251157
MTRSXT
METAR KSXT 251156Z AUTO 33003KT 1/4SM FG FEW002 OVC021 01/01 A2989
RMK AO2 SLP137 60001 70015 T00060006 10022 20006 53003





000
SAUS46 KMFR 251147
MTRSXT
SPECI KSXT 251146Z AUTO 33003KT 1/4SM FG SCT002 OVC021 01/01 A2989
RMK AO2 T00110011





000
SAUS46 KMFR 251057
MTRSXT
METAR KSXT 251056Z AUTO 34003KT 1/4SM FG VV002 02/02 A2988 RMK AO2
SLP127 T00170017





000
SAUS46 KMFR 250957
MTRSXT
METAR KSXT 250956Z AUTO 00000KT 1/4SM FG VV002 02/02 A2988 RMK AO2
SLP130 T00170017





000
SAUS46 KMFR 250857
MTRSXT
METAR KSXT 250856Z AUTO 34003KT 1/4SM FG VV002 02/02 A2988 RMK AO2
SLP127 60001 T00170017 56003





000
SAUS46 KMFR 250757
MTRSXT
METAR KSXT 250756Z AUTO 34003KT 1/4SM FG VV002 02/02 A2988 RMK AO2
SLP128 T00220017 400671011





000
SAUS46 KMFR 250757
MTRSXT
METAR KSXT 250756Z AUTO 34003KT 1/4SM FG VV002 02/02 A2988 RMK AO2
SLP128 T00220017 400671011





000
SAUS46 KMFR 250712
MTRMHS
SPECI KMHS 250708Z AUTO VRB03KT 10SM SCT017 OVC070 04/02 A2985 RMK
AO2 T00440017





000
SAUS46 KMFR 250657
MTRSXT
METAR KSXT 250656Z AUTO 34003KT 1/4SM FG VV002 02/02 A2988 RMK AO2
RAE32 SLP130 P0001 T00220017





000
SAUS46 KMFR 250657
MTRSXT
METAR KSXT 250656Z AUTO 34003KT 1/4SM FG VV002 02/02 A2988 RMK AO2
RAE32 SLP130 P0001 T00220017





000
SAUS46 KMFR 250642
MTRSXT
SPECI KSXT 250641Z AUTO 33004KT 1/4SM FG VV002 02/02 A2988 RMK AO2
RAE32 P0001 T00220017





000
SAUS46 KMFR 250642
MTRSXT
SPECI KSXT 250641Z AUTO 33004KT 1/4SM FG VV002 02/02 A2988 RMK AO2
RAE32 P0001 T00220017





000
SAUS46 KMFR 250634
MTRSXT
SPECI KSXT 250633Z AUTO 34004KT 1/2SM FG VV002 02/02 A2988 RMK AO2
RAE32 P0001 T00220017





000
SAUS46 KMFR 250625
MTRSXT
SPECI KSXT 250624Z AUTO 34004KT 1 1/4SM -RA BR BKN003 OVC016 02/02
A2989 RMK AO2 P0001 T00170017





000
SAUS46 KMFR 250625
MTRSXT
SPECI KSXT 250624Z AUTO 34004KT 1 1/4SM -RA BR BKN003 OVC016 02/02
A2989 RMK AO2 P0001 T00170017





000
SAUS46 KMFR 250618
MTRSXT
SPECI KSXT 250617Z AUTO 35005KT 2SM -RA BR BKN003 BKN007 OVC016
02/02 A2989 RMK AO2 VIS 1 1/2V4 CIG 002V006 P0001 T00170017





000
SAUS46 KMFR 250618
MTRSXT
SPECI KSXT 250617Z AUTO 35005KT 2SM -RA BR BKN003 BKN007 OVC016
02/02 A2989 RMK AO2 VIS 1 1/2V4 CIG 002V006 P0001 T00170017





000
SAUS46 KMFR 250609
MTRSXT
SPECI KSXT 250608Z AUTO 34005KT 4SM -RA BR BKN007 OVC016 02/02 A2989
RMK AO2 CIG 004V012 P0000 T00170017





000
SAUS46 KMFR 250557
MTRSXT
METAR KSXT 250556Z AUTO 34004KT 6SM -RA BR SCT007 BKN017 OVC030
02/02 A2989 RMK AO2 RAE23B40 SLP130 P0000 60002 T00220017 10050
20017 58000





000
SAUS46 KMFR 250557
MTRSXT
METAR KSXT 250556Z AUTO 34004KT 6SM -RA BR SCT007 BKN017 OVC030
02/02 A2989 RMK AO2 RAE23B40 SLP130 P0000 60002 T00220017 10050
20017 58000





000
SAUS46 KMFR 250550
MTRSXT
SPECI KSXT 250549Z AUTO 34005KT 7SM -RA SCT009 BKN019 OVC030 02/02
A2989 RMK AO2 RAE23B40 P0000 T00170017





000
SAUS46 KMFR 250457
MTRSXT
METAR KSXT 250456Z AUTO 34005KT 3SM -RA BR FEW016 OVC026 02/02 A2989
RMK AO2 RAB23 SLP136 P0001 T00220022





000
SAUS46 KMFR 250438
MTRSXT
SPECI KSXT 250437Z AUTO 33005KT 5SM -RA BR FEW009 BKN015 OVC026
02/02 A2989 RMK AO2 RAB23 P0000 T00220017





000
SAUS46 KMFR 250431
MTRSXT
SPECI KSXT 250430Z AUTO 33004KT 7SM -RA SCT010 OVC015 02/02 A2989
RMK AO2 RAB23 P0000 T00220022





000
SAUS46 KMFR 250431
MTRSXT
SPECI KSXT 250430Z AUTO 33004KT 7SM -RA SCT010 OVC015 02/02 A2989
RMK AO2 RAB23 P0000 T00220022





000
SAUS46 KMFR 250409
MTRSXT
SPECI KSXT 250408Z AUTO 33004KT 10SM SCT008 BKN012 OVC022 02/02
A2989 RMK AO2 T00220022





000
SAUS46 KMFR 250358
MTRSXT
METAR KSXT 250356Z AUTO 32004KT 10SM SCT012 BKN017 OVC024 02/02
A2989 RMK AO2 SLP135 T00220017





000
SAUS46 KMFR 250353
MTRSXT
SPECI KSXT 250352Z AUTO 32004KT 10SM BKN014 OVC021 03/02 A2989 RMK
AO2





000
SAUS46 KMFR 250319
MTRSXT
SPECI KSXT 250318Z AUTO 24004KT 10SM BKN016 03/01 A2989 RMK AO2
T00330011





000
SAUS46 KMFR 250319
MTRSXT
SPECI KSXT 250318Z AUTO 24004KT 10SM BKN016 03/01 A2989 RMK AO2
T00330011





000
SAUS46 KMFR 250257
MTRSXT
METAR KSXT 250256Z AUTO 24003KT 10SM FEW120 03/01 A2989 RMK AO2
SLP134 60001 T00330011 55001





000
SAUS46 KMFR 250157
MTRSXT
METAR KSXT 250156Z AUTO 25004KT 10SM FEW016 FEW024 04/02 A2988 RMK
AO2 SLP132 T00390017





000
SAUS46 KMFR 250157
MTRSXT
METAR KSXT 250156Z AUTO 25004KT 10SM FEW016 FEW024 04/02 A2988 RMK
AO2 SLP132 T00390017





000
SAUS46 KMFR 250057
MTRSXT
METAR KSXT 250056Z AUTO VRB04KT 10SM FEW035 OVC075 04/03 A2989 RMK
AO2 RAB10E12SNE10 SLP136 P0001 T00440028





000
SAUS46 KMFR 250057
MTRSXT
METAR KSXT 250056Z AUTO VRB04KT 10SM FEW035 OVC075 04/03 A2989 RMK
AO2 RAB10E12SNE10 SLP136 P0001 T00440028





000
SAUS46 KMFR 250025
MTRSXT
SPECI KSXT 250024Z AUTO 22004KT 10SM FEW025 SCT036 OVC075 05/03
A2989 RMK AO2 RAB10E12SNE10 P0001 T00500028





000
SAUS46 KMFR 250013
MTRSXT
SPECI KSXT 250012Z AUTO 21004KT 9SM BKN025 BKN050 OVC060 04/02 A2989
RMK AO2 RAB10E12SNE10 P0001 T00440017





000
SAUS46 KMFR 250004
MTRSXT
SPECI KSXT 250003Z AUTO 34003KT 2 1/2SM -SN BR FEW010 OVC019 02/01
A2989 RMK AO2 VIS 1 1/4V5 P0001 T00220006





000
SAUS46 KMFR 250004
MTRSXT
SPECI KSXT 250003Z AUTO 34003KT 2 1/2SM -SN BR FEW010 OVC019 02/01
A2989 RMK AO2 VIS 1 1/4V5 P0001 T00220006





000
SAUS46 KMFR 242357
MTRSXT
METAR KSXT 242356Z AUTO 32009KT 3SM -SN BR FEW003 FEW010 OVC016
02/01 A2989 RMK AO2 RAB34E53SNB53 SLP139 P0006 60012 T00220011 10067
20017 55002





000
SAUS46 KMFR 242357
MTRSXT
METAR KSXT 242356Z AUTO 32009KT 3SM -SN BR FEW003 FEW010 OVC016
02/01 A2989 RMK AO2 RAB34E53SNB53 SLP139 P0006 60012 T00220011 10067
20017 55002





000
SAUS46 KMFR 242351
MTRSXT
SPECI KSXT 242350Z AUTO 28007KT 240V320 2SM RA BR FEW003 OVC014
02/01 A2989 RMK AO2 RAB34 P0006





000
SAUS46 KMFR 242348
MTRSXT
SPECI KSXT 242347Z AUTO 22005KT 1 1/4SM RA BR FEW003 BKN014 OVC026
02/01 A2989 RMK AO2 RAB34 P0006 T00220011





000
SAUS46 KMFR 242338
MTRSXT
SPECI KSXT 242337Z AUTO 3/4SM +RA BR FEW003 BKN012 OVC024 03/02
A2989 RMK AO2 RAB34 P0001 T00280017





000
SAUS46 KMFR 242338
MTRSXT
SPECI KSXT 242337Z AUTO 3/4SM +RA BR FEW003 BKN012 OVC024 03/02
A2989 RMK AO2 RAB34 P0001 T00280017





000
SAUS46 KMFR 242332
MTRSXT
SPECI KSXT 242331Z AUTO VRB03KT 1 1/2SM BR SCT003 BKN012 OVC024
04/03 A2989 RMK AO2 T00390028





000
SAUS46 KMFR 242330
MTRSXT
SPECI KSXT 242329Z AUTO 00000KT 5SM BR FEW003 BKN012 OVC024 04/03
A2989 RMK AO2 T00440028





000
SAUS46 KMFR 242330
MTRSXT
SPECI KSXT 242329Z AUTO 00000KT 5SM BR FEW003 BKN012 OVC024 04/03
A2989 RMK AO2 T00440028





000
SAUS46 KMFR 242320
MTRSXT
SPECI KSXT 242319Z AUTO VRB05KT 10SM FEW012 BKN020 04/02 A2989 RMK
AO2 T00440022





000
SAUS46 KMFR 242320
MTRSXT
SPECI KSXT 242319Z AUTO VRB05KT 10SM FEW012 BKN020 04/02 A2989 RMK
AO2 T00440022





000
SAUS46 KMFR 242257
MTRSXT
METAR KSXT 242256Z AUTO VRB05KT 10SM SCT015 SCT050 06/03 A2989 RMK
AO2 RAE05B27E50 SLP128 P0000 T00610033





000
SAUS46 KMFR 242157
MTRSXT
METAR KSXT 242156Z AUTO 22006KT 2 1/2SM -RA BR BKN009 BKN017 OVC022
04/02 A2989 RMK AO2 RAB34 SLP134 P0003 T00390017





000
SAUS46 KMFR 242157
MTRSXT
METAR KSXT 242156Z AUTO 22006KT 2 1/2SM -RA BR BKN009 BKN017 OVC022
04/02 A2989 RMK AO2 RAB34 SLP134 P0003 T00390017





000
SAUS46 KMFR 242141
MTRSXT
SPECI KSXT 242140Z AUTO 00000KT 10SM -RA BKN009 BKN016 OVC070 04/03
A2990 RMK AO2 RAB34 CIG 005V013 P0000 T00440028





000
SAUS46 KMFR 242134
MTRSXT
SPECI KSXT 242133Z AUTO 00000KT 10SM FEW009 BKN025 OVC090 06/03
A2989 RMK AO2 T00560033





000
SAUS46 KMFR 242112
MTRSXT
SPECI KSXT 242111Z AUTO 10SM FEW027 BKN070 OVC085 06/03 A2989 RMK
AO2 T00610033





000
SAUS46 KMFR 242057
MTRSXT
METAR KSXT 242056Z AUTO 22005KT 10SM SCT006 BKN026 OVC055 04/03
A2989 RMK AO2 RAB1959E10B19E41B50E56SNB41E50 SLP132 P0003 60003
T00440028 56008





000
SAUS46 KMFR 242047
MTRSXT
SPECI KSXT 242046Z AUTO 23005KT 3SM -SN BR FEW004 BKN018 OVC024
02/01 A2989 RMK AO2 RAB1959E10B19E41SNB41 P0003 T00220011





000
SAUS46 KMFR 242044
MTRSXT
SPECI KSXT 242043Z AUTO 22006KT 2SM -SN BR SCT005 BKN011 OVC018
02/01 A2989 RMK AO2 RAB1959E10B19E41SNB41 P0003 T00220006





000
SAUS46 KMFR 242037
MTRSXT
SPECI KSXT 242035Z AUTO VRB04KT 4SM -RA BR SCT005 BKN011 OVC033
03/02 A2990 RMK AO2 RAB1959E10B19 P0000 T00330022





000
SAUS46 KMFR 242025
MTRSXT
SPECI KSXT 242024Z AUTO VRB05KT 10SM -RA FEW011 BKN018 OVC038 05/02
A2990 RMK AO2 RAB1959E10B19 P0000 T00500022





000
SAUS46 KMFR 242016
MTRSXT
SPECI KSXT 242015Z AUTO 21005KT 10SM SCT009 BKN034 OVC041 05/02
A2990 RMK AO2 RAB1959E10 P0000 T00500017





000
SAUS46 KMFR 242012
MTRSXT
SPECI KSXT 242011Z AUTO VRB05KT 10SM SCT010 BKN021 OVC036 05/02
A2990 RMK AO2 RAB1959E10 P0000 T00500022





000
SAUS46 KMFR 241957
MTRSXT
METAR KSXT 241956Z AUTO 18010KT 10SM BKN010 BKN014 OVC030 04/02
A2990 RMK AO2 RAB20E48 SLP137 P0000 T00440017





000
SAUS46 KMFR 241955
MTRSXT
SPECI KSXT 241954Z AUTO 10SM BKN010 BKN014 OVC023 04/02 A2990 RMK
AO2 RAB20E48 P0000





000
SAUS46 KMFR 241934
MTRSXT
SPECI KSXT 241933Z AUTO VRB04KT 6SM -RA BR FEW009 BKN024 OVC029
05/03 A2991 RMK AO2 RAB20 P0000 T00500028





000
SAUS46 KMFR 241858
MTRSXT
METAR KSXT 241856Z AUTO VRB05KT 10SM BKN008 OVC012 03/02 A2992 RMK
AO2 RAB15E50 SLP144 P0000 T00330017





000
SAUS46 KMFR 241853
MTRSXT
SPECI KSXT 241852Z AUTO 00000KT 10SM BKN010 OVC019 03/02 A2992 RMK
AO2 RAB15E50 P0000





000
SAUS46 KMFR 241844
MTRSXT
SPECI KSXT 241843Z AUTO 00000KT 7SM -RA BKN008 BKN016 OVC021 03/02
A2992 RMK AO2 RAB15 P0000 T00330017





000
SAUS46 KMFR 241844
MTRSXT
SPECI KSXT 241843Z AUTO 00000KT 7SM -RA BKN008 BKN016 OVC021 03/02
A2992 RMK AO2 RAB15 P0000 T00330017





000
SAUS46 KMFR 241837
MTRSXT
SPECI KSXT 241835Z AUTO VRB05KT 5SM -RA BR BKN010 BKN019 OVC025
03/01 A2992 RMK AO2 RAB15 P0000 T00280011





000
SAUS46 KMFR 241758
MTRSXT
METAR KSXT 241756Z AUTO 23004KT 10SM SCT012 BKN018 OVC038 04/02
A2992 RMK AO2 SLP140 T00390017 10039 21011 53006





000
SAUS46 KMFR 241758
MTRSXT
METAR KSXT 241756Z AUTO 23004KT 10SM SCT012 BKN018 OVC038 04/02
A2992 RMK AO2 SLP140 T00390017 10039 21011 53006





000
SAUS46 KMFR 241751
MTRSXT
SPECI KSXT 241749Z AUTO 00000KT 10SM SCT012 BKN018 BKN027 03/01
A2991 RMK AO2 T00280006





000
SAUS46 KMFR 241743
MTRSXT
SPECI KSXT 241742Z AUTO VRB03KT 10SM FEW005 BKN011 BKN018 02/M01
A2991 RMK AO2 T00221006





000
SAUS46 KMFR 241733
MTRSXT
SPECI KSXT 241731Z AUTO 00000KT 10SM FEW005 SCT009 BKN026 03/01
A2991 RMK AO2 T00280011





000
SAUS46 KMFR 241733
MTRSXT
SPECI KSXT 241731Z AUTO 00000KT 10SM FEW005 SCT009 BKN026 03/01
A2991 RMK AO2 T00280011





000
SAUS46 KMFR 241725
MTRSXT
SPECI KSXT 241724Z AUTO VRB03KT 10SM BKN007 BKN028 OVC033 03/01
A2991 RMK AO2 CIG 004V010 T00280011





000
SAUS46 KMFR 241725
MTRSXT
SPECI KSXT 241724Z AUTO VRB03KT 10SM BKN007 BKN028 OVC033 03/01
A2991 RMK AO2 CIG 004V010 T00280011





000
SAUS46 KMFR 241715
MTRSXT
SPECI KSXT 241714Z AUTO 17004KT 10SM SCT005 BKN028 OVC034 02/01
A2991 RMK AO2 T00220011





000
SAUS46 KMFR 241715
MTRSXT
SPECI KSXT 241714Z AUTO 17004KT 10SM SCT005 BKN028 OVC034 02/01
A2991 RMK AO2 T00220011





000
SAUS46 KMFR 241657
MTRSXT
METAR KSXT 241656Z AUTO 00000KT 10SM BKN006 BKN009 OVC033 02/01
A2991 RMK AO2 SLP141 T00220011





000
SAUS46 KMFR 241628
MTRSXT
SPECI KSXT 241627Z AUTO VRB03KT 10SM BKN005 BKN015 OVC042 02/01
A2991 RMK AO2 CIG 003V009 T00170006





000
SAUS46 KMFR 241621
MTRSXT
SPECI KSXT 241620Z AUTO VRB03KT 10SM SCT005 BKN011 OVC042 02/01
A2990 RMK AO2 T00170006





000
SAUS46 KMFR 241621
MTRSXT
SPECI KSXT 241620Z AUTO VRB03KT 10SM SCT005 BKN011 OVC042 02/01
A2990 RMK AO2 T00170006





000
SAUS46 KMFR 241605
MTRSXT
SPECI KSXT 241604Z AUTO 24005KT 10SM SCT004 OVC043 02/01 A2990 RMK
AO2 T00170006





000
SAUS46 KMFR 241557
MTRSXT
METAR KSXT 241556Z AUTO VRB03KT 10SM BKN004 BKN008 OVC043 02/01
A2990 RMK AO2 SLP134 T00220011





000
SAUS46 KMFR 241556
MTRSXT
SPECI KSXT 241554Z AUTO 00000KT 10SM BKN005 BKN008 OVC043 02/01
A2990 RMK AO2 CIG 002V007





000
SAUS46 KMFR 241556
MTRSXT
SPECI KSXT 241554Z AUTO 00000KT 10SM BKN005 BKN008 OVC043 02/01
A2990 RMK AO2 CIG 002V007





000
SAUS46 KMFR 241544
MTRSXT
SPECI KSXT 241543Z AUTO VRB03KT 10SM SCT007 OVC013 02/01 A2989 RMK
AO2 T00170006





000
SAUS46 KMFR 241544
MTRSXT
SPECI KSXT 241543Z AUTO VRB03KT 10SM SCT007 OVC013 02/01 A2989 RMK
AO2 T00170006





000
SAUS46 KMFR 241536
MTRSXT
SPECI KSXT 241535Z AUTO VRB03KT 10SM SCT007 OVC015 01/01 A2989 RMK
AO2 T00110006





000
SAUS46 KMFR 241521
MTRSXT
SPECI KSXT 241520Z AUTO VRB05KT 10SM BKN015 OVC110 01/01 A2989 RMK
AO2 T00110006





000
SAUS46 KMFR 241521
MTRSXT
SPECI KSXT 241520Z AUTO VRB05KT 10SM BKN015 OVC110 01/01 A2989 RMK
AO2 T00110006





000
SAUS46 KMFR 241457
MTRSXT
METAR KSXT 241456Z AUTO VRB04KT 10SM SCT035 OVC110 01/00 A2988 RMK
AO2 SLP131 T00060000 53003





000
SAUS46 KMFR 241457
MTRSXT
METAR KSXT 241456Z AUTO VRB04KT 10SM SCT035 OVC110 01/00 A2988 RMK
AO2 SLP131 T00060000 53003





000
SAUS46 KMFR 241357
MTRSXT
METAR KSXT 241356Z AUTO VRB04KT 10SM OVC035 00/M01 A2988 RMK AO2
SLP129 T00001006





000
SAUS46 KMFR 241357
MTRSXT
METAR KSXT 241356Z AUTO VRB04KT 10SM OVC035 00/M01 A2988 RMK AO2
SLP129 T00001006





000
SAUS46 KMFR 241257
MTRSXT
METAR KSXT 241256Z AUTO 29005KT 10SM CLR M01/M02 A2987 RMK AO2
SLP129 T10111017 $





000
SAUS46 KMFR 241257
MTRSXT
METAR KSXT 241256Z AUTO 29005KT 10SM CLR M01/M02 A2987 RMK AO2
SLP129 T10111017 $





000
SAUS46 KMFR 241234
MTRSXT
SPECI KSXT 241233Z AUTO 32006KT 9SM SCT003 M01/M01 A2987 RMK AO2
T10061011 $





000
SAUS46 KMFR 241234
MTRSXT
SPECI KSXT 241233Z AUTO 32006KT 9SM SCT003 M01/M01 A2987 RMK AO2
T10061011 $





000
SAUS46 KMFR 241214
MTRSXT
SPECI KSXT 241213Z AUTO 32005KT 3SM BR BKN002 BKN031 M01/M01 A2987
RMK AO2 T10061006 $





000
SAUS46 KMFR 241214
MTRSXT
SPECI KSXT 241213Z AUTO 32005KT 3SM BR BKN002 BKN031 M01/M01 A2987
RMK AO2 T10061006 $





000
SAUS46 KMFR 241209
MTRSXT
SPECI KSXT 241208Z AUTO VRB06KT 1 1/2SM BR BKN002 BKN031 00/M01
A2987 RMK AO2 T00001006 $





000
SAUS46 KMFR 241209
MTRSXT
SPECI KSXT 241208Z AUTO VRB06KT 1 1/2SM BR BKN002 BKN031 00/M01
A2987 RMK AO2 T00001006 $





000
SAUS46 KMFR 241157
MTRSXT
METAR KSXT 241156Z AUTO VRB04KT 1/2SM FG BKN002 OVC031 00/00 A2987
RMK AO2 SLP125 60001 70020 T00000000 10022 20000 55000 $





000
SAUS46 KMFR 241157
MTRSXT
METAR KSXT 241156Z AUTO VRB04KT 1/2SM FG BKN002 OVC031 00/00 A2987
RMK AO2 SLP125 60001 70020 T00000000 10022 20000 55000 $





000
SAUS46 KMFR 241127
MTRSXT
SPECI KSXT 241126Z AUTO 33006KT 1/4SM FG BKN003 OVC028 01/01 A2987
RMK AO2 T00060006 $





000
SAUS46 KMFR 241127
MTRSXT
SPECI KSXT 241126Z AUTO 33006KT 1/4SM FG BKN003 OVC028 01/01 A2987
RMK AO2 T00060006 $





000
SAUS46 KMFR 241058
MTRSXT
METAR KSXT 241056Z AUTO 33006KT 1/2SM FG VV002 01/01 A2987 RMK AO2
RAE28 SLP123 P0000 T00110011 $





000
SAUS46 KMFR 241058
MTRSXT
METAR KSXT 241056Z AUTO 33006KT 1/2SM FG VV002 01/01 A2987 RMK AO2
RAE28 SLP123 P0000 T00110011 $





000
SAUS46 KMFR 241048
MTRSXT
SPECI KSXT 241046Z AUTO 32005KT 1/4SM FG BKN002 OVC006 01/01 A2987
RMK AO2 RAE28 P0000 T00110011 $





000
SAUS46 KMFR 241048
MTRSXT
SPECI KSXT 241046Z AUTO 32005KT 1/4SM FG BKN002 OVC006 01/01 A2987
RMK AO2 RAE28 P0000 T00110011 $





000
SAUS46 KMFR 241029
MTRSXT
SPECI KSXT 241028Z AUTO 33004KT 1/2SM FG BKN003 OVC007 02/02 A2987
RMK AO2 RAE28 P0000 T00170017 $





000
SAUS46 KMFR 241014
MTRSXT
SPECI KSXT 241013Z AUTO VRB03KT 1/4SM -RA FG BKN004 OVC009 02/02
A2987 RMK AO2 P0000 T00170017 $





000
SAUS46 KMFR 241003
MTRMHS
METAR KMHS 240956Z AUTO VRB06KT 10SM CLR 06/00 A2984 RMK AO2 SLP107
T00610000





000
SAUS46 KMFR 240957
MTRSXT
METAR KSXT 240956Z AUTO VRB03KT 1/2SM -RA FG BKN008 OVC015 02/02
A2987 RMK AO2 RAB27SNB34E39 SLP123 P0001 T00170017 $





000
SAUS46 KMFR 240951
MTRSXT
SPECI KSXT 240950Z AUTO 30004KT 3/4SM -RA BR FEW002 SCT008 OVC013
02/02 A2987 RMK AO2 RAB27SNB34E39 P0001 $





000
SAUS46 KMFR 240946
MTRSXT
SPECI KSXT 240945Z AUTO 28004KT 1SM -RA BR FEW002 SCT008 OVC015
02/02 A2987 RMK AO2 VIS 1/2V3 RAB27SNB34E39 P0001 T00170017 $





000
SAUS46 KMFR 240946
MTRSXT
SPECI KSXT 240945Z AUTO 28004KT 1SM -RA BR FEW002 SCT008 OVC015
02/02 A2987 RMK AO2 VIS 1/2V3 RAB27SNB34E39 P0001 T00170017 $





000
SAUS46 KMFR 240940
MTRSXT
SPECI KSXT 240939Z AUTO VRB04KT 1 1/2SM -RA BR FEW002 BKN014 OVC019
02/01 A2987 RMK AO2 VIS 1V3 RAB27SNB34E39 P0001 T00170011 $





000
SAUS46 KMFR 240932
MTRSXT
SPECI KSXT 240931Z AUTO 31004KT 2SM -RA BR FEW002 BKN011 OVC020
02/01 A2987 RMK AO2 VIS 1 1/4V4 RAB27 P0000 T00170011 $





000
SAUS46 KMFR 240932
MTRSXT
SPECI KSXT 240931Z AUTO 31004KT 2SM -RA BR FEW002 BKN011 OVC020
02/01 A2987 RMK AO2 VIS 1 1/4V4 RAB27 P0000 T00170011 $





000
SAUS46 KMFR 240921
MTRSXT
SPECI KSXT 240920Z AUTO 31003KT 2 1/2SM BR FEW008 SCT013 OVC022
02/02 A2987 RMK AO2 VIS 1 1/2V3 T00170017 $





000
SAUS46 KMFR 240857
MTRSXT
METAR KSXT 240856Z AUTO 31004KT 7SM BKN024 OVC029 02/01 A2988 RMK
AO2 SLP120 T00170011 58002 $





000
SAUS46 KMFR 240857
MTRSXT
METAR KSXT 240856Z AUTO 31004KT 7SM BKN024 OVC029 02/01 A2988 RMK
AO2 SLP120 T00170011 58002 $





000
SAUS46 KMFR 240848
MTRSXT
SPECI KSXT 240847Z AUTO 32004KT 10SM BKN024 BKN029 01/01 A2987 RMK
AO2 T00110011 $





000
SAUS46 KMFR 240805
MTRSXT
SPECI KSXT 240804Z AUTO 32006KT 5SM BR SCT026 01/01 A2988 RMK AO2
T00110006 $





000
SAUS46 KMFR 240757
MTRSXT
METAR KSXT 240756Z AUTO 33005KT 2 1/2SM BR BKN026 01/01 A2988 RMK
AO2 SLP123 T00110006 401000011 $





000
SAUS46 KMFR 240721
MTRSXT
SPECI KSXT 240720Z AUTO 33003KT 7SM OVC026 01/01 A2988 RMK AO2
T00110011 $





000
SAUS46 KMFR 240715
MTRSXT
SPECI KSXT 240713Z AUTO 34005KT 2 1/2SM BR FEW019 OVC025 01/01 A2988
RMK AO2 VIS 1V5 T00110011 $





000
SAUS46 KMFR 240715
MTRSXT
SPECI KSXT 240713Z AUTO 34005KT 2 1/2SM BR FEW019 OVC025 01/01 A2988
RMK AO2 VIS 1V5 T00110011 $





000
SAUS46 KMFR 240703
MTRSXT
SPECI KSXT 240702Z AUTO VRB04KT 1 1/4SM BR FEW019 OVC025 02/02 A2988
RMK AO2 T00170017 $





000
SAUS46 KMFR 240657
MTRSXT
METAR KSXT 240656Z AUTO 33004KT 2SM BR FEW019 OVC025 02/02 A2988 RMK
AO2 VIS 1 1/2V5 SLP122 T00170017 $





000
SAUS46 KMFR 240657
MTRSXT
METAR KSXT 240656Z AUTO 33004KT 2SM BR FEW019 OVC025 02/02 A2988 RMK
AO2 VIS 1 1/2V5 SLP122 T00170017 $





000
SAUS46 KMFR 240651
MTRMHS
SPECI KMHS 240644Z AUTO VRB06KT 10SM OVC027 09/04 A2983 RMK AO2
T00890044





000
SAUS46 KMFR 240645
MTRSXT
SPECI KSXT 240644Z AUTO VRB05KT 2SM BR FEW017 OVC025 02/01 A2988 RMK
AO2 VIS 1 1/4V3 T00170011 $





000
SAUS46 KMFR 240645
MTRSXT
SPECI KSXT 240644Z AUTO VRB05KT 2SM BR FEW017 OVC025 02/01 A2988 RMK
AO2 VIS 1 1/4V3 T00170011 $





000
SAUS46 KMFR 240633
MTRSXT
SPECI KSXT 240632Z AUTO VRB03KT 1 1/4SM BR BKN017 OVC023 02/02 A2988
RMK AO2 T00170017 $





000
SAUS46 KMFR 240633
MTRSXT
SPECI KSXT 240632Z AUTO VRB03KT 1 1/4SM BR BKN017 OVC023 02/02 A2988
RMK AO2 T00170017 $





000
SAUS46 KMFR 240557
MTRSXT
METAR KSXT 240556Z AUTO 33006KT 1/2SM FG SCT002 OVC025 02/02 A2988
RMK AO2 SLP122 60014 T00220022 10067 20022 50002 $





000
SAUS46 KMFR 240557
MTRSXT
METAR KSXT 240556Z AUTO 33006KT 1/2SM FG SCT002 OVC025 02/02 A2988
RMK AO2 SLP122 60014 T00220022 10067 20022 50002 $





000
SAUS46 KMFR 240518
MTRSXT
SPECI KSXT 240517Z AUTO 33003KT 1/4SM FG VV003 03/03 A2989 RMK AO2
T00280028 $





000
SAUS46 KMFR 240504
MTRSXT
SPECI KSXT 240503Z AUTO 33004KT 1/4SM FG BKN001 BKN005 OVC023 03/02
A2989 RMK AO2 T00280022 $





000
SAUS46 KMFR 240504
MTRSXT
SPECI KSXT 240503Z AUTO 33004KT 1/4SM FG BKN001 BKN005 OVC023 03/02
A2989 RMK AO2 T00280022 $





000
SAUS46 KMFR 240458
MTRSXT
METAR KSXT 240456Z AUTO 33004KT 1SM BR BKN001 BKN016 OVC023 03/02
A2988 RMK AO2 SLP120 T00280022 $





000
SAUS46 KMFR 240458
MTRSXT
METAR KSXT 240456Z AUTO 33004KT 1SM BR BKN001 BKN016 OVC023 03/02
A2988 RMK AO2 SLP120 T00280022 $





000
SAUS46 KMFR 240439
MTRSXT
SPECI KSXT 240438Z AUTO 33006KT 1 1/2SM BR FEW005 BKN014 OVC025
03/03 A2989 RMK AO2 T00280028 $





000
SAUS46 KMFR 240412
MTRSXT
SPECI KSXT 240411Z AUTO 33009G15KT 290V360 3/4SM BR SCT004 BKN010
OVC015 03/03 A2989 RMK AO2 T00330033 $





000
SAUS46 KMFR 240357
MTRSXT
METAR KSXT 240356Z AUTO VRB06KT 1/2SM FG BKN004 OVC010 04/03 A2988
RMK AO2 SLP120 T00390033





000
SAUS46 KMFR 240357
MTRSXT
METAR KSXT 240356Z AUTO VRB06KT 1/2SM FG BKN004 OVC010 04/03 A2988
RMK AO2 SLP120 T00390033





000
SAUS46 KMFR 240330
MTRSXT
SPECI KSXT 240329Z AUTO VRB06KT 1/2SM FG BKN004 BKN012 OVC029 04/04
A2988 RMK AO2 T00390039





000
SAUS46 KMFR 240330
MTRSXT
SPECI KSXT 240329Z AUTO VRB06KT 1/2SM FG BKN004 BKN012 OVC029 04/04
A2988 RMK AO2 T00390039





000
SAUS46 KMFR 240257
MTRSXT
METAR KSXT 240256Z AUTO 32008KT 1/4SM FG BKN003 OVC009 04/04 A2988
RMK AO2 RAE0158B22E39 SLP122 P0000 60014 T00440044 56010





000
SAUS46 KMFR 240203
MTRMHS
METAR KMHS 240156Z AUTO VRB03KT 10SM SCT060 OVC075 11/07 A2984 RMK
AO2 RAE49 SLP120 P0003 T01060072





000
SAUS46 KMFR 240203
MTRMHS
METAR KMHS 240156Z AUTO VRB03KT 10SM SCT060 OVC075 11/07 A2984 RMK
AO2 RAE49 SLP120 P0003 T01060072





000
SAUS46 KMFR 240157
MTRSXT
METAR KSXT 240156Z AUTO 32003KT M1/4SM -RA FG VV002 06/06 A2988 RMK
AO2 SLP124 P0003 T00560056





    US Dept of Commerce
    National Oceanic and Atmospheric Administration
    National Weather Service
    1325 East West Highway
    Silver Spring, MD 20910
    Page Author: NWS Internet Services Team
Disclaimer
Information Quality
Credits
Glossary
Privacy Policy
Freedom of Information Act (FOIA)
About Us
Career Opportunities